Time;durP1;ratioP1;P1;durP2;ratioP2;P2;SDS_P1;SDS_P2;PMS_P1;PMS_P2;Temp;Humidity;BMP_temperature;BMP_pressure;BME280_temperature;BME280_humidity;BME280_pressure;Samples;Min_cycle;Max_cycle;Signal;HPM_P1;HPM_P2
2021/10/09 00:01:53;;;;;;;;;20.75;19.00;;;;;;;;5069797;28;52170;-60
2021/10/09 00:04:18;;;;;;;;;20.00;19.25;;;;;;;;5057084;28;51745;-59
2021/10/09 00:06:43;;;;;;;;;20.25;19.50;;;;;;;;5073761;28;51093;-59
2021/10/09 00:09:10;;;;;;;;;18.75;18.25;;;;;;;;5065330;28;51677;-59
2021/10/09 00:11:37;;;;;;;;;21.50;20.25;;;;;;;;5074628;28;51852;-59
2021/10/09 00:14:03;;;;;;;;;19.75;19.00;;;;;;;;5074087;28;51070;-59
2021/10/09 00:16:29;;;;;;;;;21.00;19.75;;;;;;;;5073955;28;50924;-59
2021/10/09 00:18:54;;;;;;;;;22.25;20.25;;;;;;;;5074316;28;51302;-59
2021/10/09 00:21:19;;;;;;;;;27.50;24.00;;;;;;;;5073487;28;51888;-59
2021/10/09 00:23:45;;;;;;;;;22.50;21.00;;;;;;;;5072840;28;51394;-59
2021/10/09 00:26:10;;;;;;;;;28.50;23.75;;;;;;;;5068259;28;51266;-59
2021/10/09 00:28:35;;;;;;;;;24.50;22.50;;;;;;;;5068390;28;51103;-59
2021/10/09 00:31:00;;;;;;;;;25.00;23.25;;;;;;;;5065959;28;50954;-60
2021/10/09 00:33:25;;;;;;;;;21.25;20.00;;;;;;;;5075035;28;51180;-59
2021/10/09 00:35:51;;;;;;;;;23.75;22.00;;;;;;;;5067310;28;51285;-59
2021/10/09 00:38:16;;;;;;;;;23.25;22.50;;;;;;;;5068991;28;50834;-59
2021/10/09 00:40:41;;;;;;;;;21.50;19.50;;;;;;;;5071697;28;51652;-59
2021/10/09 00:43:06;;;;;;;;;20.00;19.50;;;;;;;;5072510;28;51157;-59
2021/10/09 00:45:32;;;;;;;;;23.25;22.25;;;;;;;;5052963;28;51222;-59
2021/10/09 00:47:57;;;;;;;;;21.75;21.75;;;;;;;;5074586;28;51156;-59
2021/10/09 00:50:22;;;;;;;;;24.00;21.25;;;;;;;;5071689;28;51075;-59
2021/10/09 00:52:49;;;;;;;;;25.75;24.25;;;;;;;;5074302;27;51151;-59
2021/10/09 00:55:14;;;;;;;;;19.00;17.50;;;;;;;;5062084;28;50971;-59
2021/10/09 00:57:42;;;;;;;;;23.50;22.00;;;;;;;;5068298;28;51518;-60
2021/10/09 01:00:08;;;;;;;;;24.75;24.50;;;;;;;;5069764;28;53053;-59
2021/10/09 01:02:37;;;;;;;;;20.75;20.00;;;;;;;;5072536;28;51007;-59
2021/10/09 01:05:04;;;;;;;;;20.25;19.50;;;;;;;;5070267;28;50912;-59
2021/10/09 01:07:29;;;;;;;;;23.00;21.75;;;;;;;;5058035;28;50873;-60
2021/10/09 01:09:54;;;;;;;;;24.75;24.75;;;;;;;;5069890;28;51252;-60
2021/10/09 01:12:20;;;;;;;;;25.50;25.00;;;;;;;;5055558;28;51091;-60
2021/10/09 01:14:46;;;;;;;;;24.75;22.75;;;;;;;;5072259;28;51104;-59
2021/10/09 01:17:12;;;;;;;;;28.25;24.25;;;;;;;;5041028;28;50967;-59
2021/10/09 01:19:38;;;;;;;;;24.75;23.00;;;;;;;;5061843;28;51798;-59
2021/10/09 01:22:03;;;;;;;;;23.25;21.00;;;;;;;;5073519;28;51153;-59
2021/10/09 01:24:28;;;;;;;;;22.50;22.25;;;;;;;;5071642;28;51185;-60
2021/10/09 01:26:53;;;;;;;;;24.00;23.00;;;;;;;;5070559;28;51510;-61
2021/10/09 01:29:19;;;;;;;;;27.25;25.25;;;;;;;;5067986;28;51871;-60
2021/10/09 01:31:44;;;;;;;;;24.75;23.00;;;;;;;;5073526;28;52606;-61
2021/10/09 01:34:09;;;;;;;;;20.75;19.75;;;;;;;;5074301;28;51118;-61
2021/10/09 01:36:36;;;;;;;;;23.50;21.00;;;;;;;;5038515;28;51258;-61
2021/10/09 01:39:03;;;;;;;;;25.25;22.50;;;;;;;;5071821;28;51663;-60
2021/10/09 01:41:28;;;;;;;;;25.00;24.00;;;;;;;;5073723;28;51064;-59
2021/10/09 01:43:54;;;;;;;;;22.25;20.25;;;;;;;;5071029;28;51133;-59
2021/10/09 01:46:19;;;;;;;;;25.25;24.50;;;;;;;;5073682;28;51254;-60
2021/10/09 01:48:44;;;;;;;;;21.75;21.25;;;;;;;;5073577;28;51822;-60
2021/10/09 01:51:11;;;;;;;;;24.50;22.00;;;;;;;;5071936;28;51315;-59
2021/10/09 01:53:37;;;;;;;;;28.75;26.00;;;;;;;;5048664;28;51217;-60
2021/10/09 01:56:02;;;;;;;;;23.50;23.25;;;;;;;;5072001;28;51112;-60
2021/10/09 01:58:27;;;;;;;;;26.50;24.75;;;;;;;;5073715;28;51363;-60
2021/10/09 02:00:53;;;;;;;;;23.50;21.75;;;;;;;;5067626;28;51064;-60
2021/10/09 02:03:20;;;;;;;;;23.25;22.50;;;;;;;;5073909;28;50977;-60
2021/10/09 02:05:46;;;;;;;;;24.75;23.00;;;;;;;;5067805;28;51091;-60
2021/10/09 02:08:11;;;;;;;;;31.00;28.25;;;;;;;;5053362;28;52683;-60
2021/10/09 02:10:46;;;;;;;;;22.75;22.25;;;;;;;;5071643;28;51168;-60
2021/10/09 02:13:13;;;;;;;;;28.50;26.50;;;;;;;;5074391;28;50972;-60
2021/10/09 02:15:47;;;;;;;;;29.75;28.50;;;;;;;;5058558;28;50892;-60
2021/10/09 02:26:24;;;;;;;;;30.00;29.25;;;;;;;;5059674;28;51209;-59
2021/10/09 02:28:49;;;;;;;;;24.25;23.75;;;;;;;;5053361;28;52015;-59
2021/10/09 02:31:14;;;;;;;;;25.75;24.75;;;;;;;;5060093;28;50999;-61
2021/10/09 02:33:39;;;;;;;;;22.75;21.50;;;;;;;;5072174;28;51118;-61
2021/10/09 02:36:04;;;;;;;;;22.50;22.25;;;;;;;;5065440;28;51279;-60
2021/10/09 02:38:30;;;;;;;;;25.00;24.25;;;;;;;;5072375;28;52016;-59
2021/10/09 02:40:55;;;;;;;;;28.50;27.50;;;;;;;;5061667;28;51032;-59
2021/10/09 02:43:21;;;;;;;;;24.50;23.50;;;;;;;;5072696;28;51130;-58
2021/10/09 02:45:46;;;;;;;;;30.00;26.50;;;;;;;;5070799;28;51015;-59
2021/10/09 02:48:15;;;;;;;;;27.00;26.25;;;;;;;;5070568;28;50928;-59
2021/10/09 02:50:40;;;;;;;;;27.50;23.50;;;;;;;;5062214;28;51115;-59
2021/10/09 02:53:05;;;;;;;;;27.50;26.50;;;;;;;;5075238;27;52384;-59
2021/10/09 02:55:31;;;;;;;;;28.25;24.75;;;;;;;;5035135;28;51110;-59
2021/10/09 02:57:56;;;;;;;;;30.00;28.75;;;;;;;;5073121;28;53822;-59
2021/10/09 03:00:21;;;;;;;;;26.25;25.00;;;;;;;;5073548;28;51020;-59
2021/10/09 03:02:47;;;;;;;;;24.75;24.00;;;;;;;;5053551;28;51022;-58
2021/10/09 03:05:12;;;;;;;;;25.25;24.50;;;;;;;;5069849;28;51028;-60
2021/10/09 03:07:38;;;;;;;;;26.00;22.00;;;;;;;;5070531;28;51278;-60
2021/10/09 03:10:05;;;;;;;;;30.50;26.75;;;;;;;;5057806;28;51043;-59
2021/10/09 03:12:30;;;;;;;;;28.25;27.25;;;;;;;;5066584;28;51303;-60
2021/10/09 03:14:55;;;;;;;;;27.75;26.00;;;;;;;;5071452;28;51223;-60
2021/10/09 03:17:21;;;;;;;;;27.00;25.25;;;;;;;;5048530;28;53179;-60
2021/10/09 03:19:46;;;;;;;;;26.00;22.75;;;;;;;;5053134;28;50923;-60
2021/10/09 03:22:11;;;;;;;;;27.75;25.25;;;;;;;;5068512;28;51027;-60
2021/10/09 03:24:37;;;;;;;;;26.25;23.50;;;;;;;;5072541;28;51159;-60
2021/10/09 03:27:02;;;;;;;;;26.00;22.75;;;;;;;;5068510;28;53207;-59
2021/10/09 03:29:27;;;;;;;;;24.75;24.25;;;;;;;;5073081;28;50980;-60
2021/10/09 03:31:52;;;;;;;;;29.25;29.00;;;;;;;;5072033;28;51180;-60
2021/10/09 03:34:18;;;;;;;;;28.75;27.50;;;;;;;;5073247;28;51270;-60
2021/10/09 03:36:43;;;;;;;;;26.25;25.50;;;;;;;;5070181;28;51201;-60
2021/10/09 03:39:12;;;;;;;;;27.25;23.75;;;;;;;;5064346;28;50980;-59
2021/10/09 03:41:40;;;;;;;;;26.75;26.75;;;;;;;;5060561;28;50940;-60
2021/10/09 03:44:05;;;;;;;;;33.00;28.00;;;;;;;;5073027;28;51039;-60
2021/10/09 03:46:33;;;;;;;;;30.50;29.00;;;;;;;;5070200;28;51664;-59
2021/10/09 03:49:18;;;;;;;;;29.50;27.75;;;;;;;;5067614;28;50976;-59
2021/10/09 03:54:27;;;;;;;;;31.50;29.50;;;;;;;;5068389;27;50910;-59
2021/10/09 03:56:52;;;;;;;;;31.50;28.75;;;;;;;;5064557;28;51038;-59
2021/10/09 03:59:17;;;;;;;;;29.25;27.25;;;;;;;;5071332;28;51038;-59
2021/10/09 04:01:42;;;;;;;;;28.25;27.75;;;;;;;;5070950;28;51319;-58
2021/10/09 04:04:08;;;;;;;;;30.25;29.75;;;;;;;;5072710;28;51233;-59
2021/10/09 04:06:33;;;;;;;;;37.75;32.25;;;;;;;;5071737;28;51914;-59
2021/10/09 04:08:58;;;;;;;;;33.75;28.75;;;;;;;;5066866;28;51075;-59
2021/10/09 04:11:23;;;;;;;;;35.75;34.00;;;;;;;;5060249;28;51106;-59
2021/10/09 04:13:49;;;;;;;;;35.50;33.50;;;;;;;;5071762;28;51246;-59
2021/10/09 04:16:14;;;;;;;;;33.25;31.00;;;;;;;;5070270;28;52802;-59
2021/10/09 04:18:39;;;;;;;;;28.50;26.25;;;;;;;;5070500;28;51188;-59
2021/10/09 04:21:04;;;;;;;;;30.75;30.50;;;;;;;;5069735;28;51191;-59
2021/10/09 04:23:30;;;;;;;;;35.25;32.00;;;;;;;;5071349;28;51135;-59
2021/10/09 04:25:55;;;;;;;;;35.50;32.00;;;;;;;;5072112;28;52748;-60
2021/10/09 04:28:20;;;;;;;;;34.75;33.75;;;;;;;;5070349;27;51060;-62
2021/10/09 04:30:46;;;;;;;;;36.75;33.75;;;;;;;;5056532;28;50915;-60
2021/10/09 04:33:12;;;;;;;;;33.75;29.75;;;;;;;;5075539;28;50948;-61
2021/10/09 04:35:37;;;;;;;;;27.00;26.00;;;;;;;;5074165;28;51197;-59
2021/10/09 04:38:06;;;;;;;;;33.50;30.75;;;;;;;;5071756;28;51094;-60
2021/10/09 04:40:32;;;;;;;;;34.25;30.75;;;;;;;;5056094;28;51154;-60
2021/10/09 04:42:57;;;;;;;;;31.75;30.00;;;;;;;;5073768;28;51265;-60
2021/10/09 04:45:22;;;;;;;;;41.50;36.00;;;;;;;;5071121;28;52259;-60
2021/10/09 04:47:47;;;;;;;;;30.00;27.75;;;;;;;;5069178;28;51961;-59
2021/10/09 04:50:13;;;;;;;;;38.00;33.00;;;;;;;;5055362;28;51094;-58
2021/10/09 04:52:38;;;;;;;;;38.00;33.75;;;;;;;;5076261;27;51194;-60
2021/10/09 04:55:03;;;;;;;;;32.75;31.50;;;;;;;;5074031;27;52716;-59
2021/10/09 04:57:28;;;;;;;;;29.50;28.00;;;;;;;;5055443;28;50932;-60
2021/10/09 04:59:54;;;;;;;;;34.50;33.00;;;;;;;;5055475;28;50922;-60
2021/10/09 05:02:19;;;;;;;;;27.75;27.00;;;;;;;;5060099;28;51039;-59
2021/10/09 05:04:44;;;;;;;;;34.50;31.00;;;;;;;;5072884;28;51890;-60
2021/10/09 05:07:09;;;;;;;;;33.00;30.00;;;;;;;;5074425;28;50865;-60
2021/10/09 05:09:35;;;;;;;;;38.50;34.75;;;;;;;;5065002;28;50824;-60
2021/10/09 05:12:00;;;;;;;;;36.00;33.00;;;;;;;;5062432;28;51170;-60
2021/10/09 05:14:25;;;;;;;;;35.75;33.75;;;;;;;;5064892;28;50985;-60
2021/10/09 05:16:50;;;;;;;;;34.75;33.75;;;;;;;;5061902;28;51017;-59
2021/10/09 05:19:16;;;;;;;;;32.00;31.00;;;;;;;;5065460;28;51186;-60
2021/10/09 05:21:41;;;;;;;;;29.50;29.00;;;;;;;;5059803;28;51248;-60
2021/10/09 05:24:06;;;;;;;;;29.50;26.75;;;;;;;;5075086;28;50937;-60
2021/10/09 05:26:32;;;;;;;;;36.25;34.00;;;;;;;;5056487;28;51117;-60
2021/10/09 05:28:57;;;;;;;;;37.50;34.75;;;;;;;;5074461;28;51179;-60
2021/10/09 05:31:27;;;;;;;;;39.25;36.00;;;;;;;;5073904;28;51235;-60
2021/10/09 05:33:52;;;;;;;;;37.50;33.50;;;;;;;;5065029;28;51056;-60
2021/10/09 05:36:18;;;;;;;;;36.25;33.50;;;;;;;;5054453;28;51138;-59
2021/10/09 05:38:43;;;;;;;;;34.50;32.75;;;;;;;;5062557;28;51338;-60
2021/10/09 05:41:08;;;;;;;;;31.50;28.25;;;;;;;;5067979;28;50843;-60
2021/10/09 05:43:33;;;;;;;;;37.50;34.25;;;;;;;;5074171;28;51598;-60
2021/10/09 05:45:59;;;;;;;;;37.25;32.50;;;;;;;;5073932;28;51237;-60
2021/10/09 05:48:24;;;;;;;;;39.00;34.25;;;;;;;;5070524;28;51146;-60
2021/10/09 07:00:40;;;;;;;;;35.50;33.50;;;;;;;;5073732;27;51111;-61
2021/10/09 07:03:05;;;;;;;;;33.00;33.00;;;;;;;;5072773;27;51224;-61
2021/10/09 07:05:32;;;;;;;;;39.75;36.00;;;;;;;;5070758;27;51290;-61
2021/10/09 07:08:04;;;;;;;;;20.75;20.50;;;;;;;;5050491;28;51409;-61
2021/10/09 07:10:30;;;;;;;;;39.50;34.00;;;;;;;;5067441;28;51236;-61
2021/10/09 07:12:58;;;;;;;;;40.25;35.00;;;;;;;;5070397;28;51124;-60
2021/10/09 07:15:23;;;;;;;;;38.25;35.75;;;;;;;;5061349;27;51185;-61
2021/10/09 07:17:48;;;;;;;;;38.25;35.75;;;;;;;;5054940;28;52802;-61
2021/10/09 07:20:14;;;;;;;;;45.25;37.00;;;;;;;;5072332;27;51340;-61
2021/10/09 07:22:39;;;;;;;;;43.75;36.50;;;;;;;;5062151;28;51385;-60
2021/10/09 07:25:05;;;;;;;;;37.50;34.25;;;;;;;;5057244;28;51476;-59
2021/10/09 07:27:30;;;;;;;;;37.50;35.00;;;;;;;;5052678;28;52396;-61
2021/10/09 07:29:56;;;;;;;;;35.50;32.50;;;;;;;;5067585;27;51020;-60
2021/10/09 07:32:21;;;;;;;;;37.75;33.50;;;;;;;;5063894;27;51164;-59
2021/10/09 07:34:46;;;;;;;;;34.75;32.75;;;;;;;;5071225;27;50910;-59
2021/10/09 07:37:11;;;;;;;;;37.25;33.50;;;;;;;;5071227;27;53165;-59
2021/10/09 07:39:37;;;;;;;;;35.75;32.00;;;;;;;;5047913;28;50937;-60
2021/10/09 07:42:02;;;;;;;;;37.75;33.00;;;;;;;;5071406;27;51000;-59
2021/10/09 07:44:28;;;;;;;;;34.25;31.50;;;;;;;;5063606;28;51272;-60
2021/10/09 07:46:53;;;;;;;;;32.00;31.00;;;;;;;;5069100;28;51505;-59
2021/10/09 07:49:19;;;;;;;;;38.75;33.25;;;;;;;;5068897;28;50935;-59
2021/10/09 07:51:44;;;;;;;;;31.50;30.00;;;;;;;;5068640;28;52398;-60
2021/10/09 07:54:10;;;;;;;;;33.25;31.00;;;;;;;;5076371;27;50962;-59
2021/10/09 07:56:35;;;;;;;;;37.75;33.25;;;;;;;;5064837;27;51746;-61
2021/10/09 07:59:01;;;;;;;;;32.75;30.00;;;;;;;;5063638;28;52030;-59
2021/10/09 08:01:26;;;;;;;;;32.25;30.50;;;;;;;;5065657;27;51475;-59
2021/10/09 08:03:52;;;;;;;;;32.75;30.25;;;;;;;;5068519;27;51044;-60
2021/10/09 08:06:17;;;;;;;;;34.25;32.00;;;;;;;;5063321;28;52545;-61
2021/10/09 08:08:43;;;;;;;;;33.75;30.50;;;;;;;;5072703;28;51115;-59
2021/10/09 08:11:08;;;;;;;;;32.00;30.50;;;;;;;;5065452;28;50929;-60
2021/10/09 08:13:35;;;;;;;;;34.00;31.00;;;;;;;;5050043;28;51350;-59
2021/10/09 08:16:01;;;;;;;;;29.75;29.00;;;;;;;;5068267;28;52315;-60
2021/10/09 08:18:26;;;;;;;;;35.00;32.25;;;;;;;;5072717;27;51138;-59
2021/10/09 08:20:58;;;;;;;;;34.75;31.50;;;;;;;;5070195;27;51193;-59
2021/10/09 08:23:27;;;;;;;;;35.25;31.00;;;;;;;;5053647;28;51167;-60
2021/10/09 08:39:17;;;;;;;;;32.00;29.25;;;;;;;;5038723;28;51243;-60
2021/10/09 08:41:44;;;;;;;;;36.25;31.25;;;;;;;;5058055;28;50989;-60
2021/10/09 08:44:09;;;;;;;;;30.75;29.75;;;;;;;;5055794;28;50962;-60
2021/10/09 08:46:34;;;;;;;;;33.00;30.00;;;;;;;;5073060;28;51072;-60
2021/10/09 08:48:59;;;;;;;;;32.00;30.25;;;;;;;;5073643;28;50834;-60
2021/10/09 08:51:26;;;;;;;;;35.75;31.75;;;;;;;;5059139;28;51187;-60
2021/10/09 08:53:52;;;;;;;;;29.00;28.50;;;;;;;;5063190;27;51220;-60
2021/10/09 08:56:48;;;;;;;;;29.25;28.25;;;;;;;;5054515;28;51826;-59
2021/10/09 08:59:14;;;;;;;;;40.75;35.00;;;;;;;;5045057;28;51091;-58
2021/10/09 09:01:51;;;;;;;;;35.00;32.50;;;;;;;;5074222;28;51020;-59
2021/10/09 09:31:43;;;;;;;;;26.00;26.00;;;;;;;;5052864;28;51470;-60
2021/10/09 09:37:14;;;;;;;;;32.50;30.25;;;;;;;;5058505;28;51110;-59
2021/10/09 09:39:41;;;;;;;;;31.75;30.00;;;;;;;;5055702;28;52797;-60
2021/10/09 09:42:07;;;;;;;;;29.25;28.50;;;;;;;;5060528;28;51006;-60
2021/10/09 09:44:32;;;;;;;;;33.75;31.25;;;;;;;;5057502;28;51106;-61
2021/10/09 09:47:03;;;;;;;;;32.00;30.50;;;;;;;;5069785;28;51301;-61
2021/10/09 09:49:28;;;;;;;;;32.75;29.25;;;;;;;;5073235;28;51581;-60
2021/10/09 09:51:55;;;;;;;;;30.75;28.50;;;;;;;;5061247;28;51410;-61
2021/10/09 09:54:25;;;;;;;;;31.00;29.50;;;;;;;;5079253;27;51016;-60
2021/10/09 09:56:51;;;;;;;;;34.00;31.00;;;;;;;;5053388;28;50999;-61
2021/10/09 09:59:16;;;;;;;;;31.00;29.50;;;;;;;;5052839;28;52020;-60
2021/10/09 10:01:42;;;;;;;;;29.75;29.00;;;;;;;;5059661;28;51237;-60
2021/10/09 10:04:07;;;;;;;;;30.75;28.75;;;;;;;;5044208;28;51176;-62
2021/10/09 10:06:33;;;;;;;;;32.00;29.50;;;;;;;;5044004;28;51204;-61
2021/10/09 10:08:58;;;;;;;;;31.50;28.50;;;;;;;;5055952;28;52279;-61
2021/10/09 10:11:24;;;;;;;;;29.75;28.75;;;;;;;;5066844;28;51105;-61
2021/10/09 10:13:51;;;;;;;;;27.00;26.50;;;;;;;;5070309;28;51035;-61
2021/10/09 10:16:16;;;;;;;;;29.00;28.50;;;;;;;;5072177;28;51190;-60
2021/10/09 10:18:49;;;;;;;;;30.00;29.00;;;;;;;;5070744;28;51883;-62
2021/10/09 10:21:18;;;;;;;;;29.00;27.75;;;;;;;;5069627;28;51130;-63
2021/10/09 10:23:44;;;;;;;;;30.25;28.75;;;;;;;;5070077;28;50912;-61
2021/10/09 10:26:18;;;;;;;;;29.50;28.75;;;;;;;;5065719;28;51096;-62
2021/10/09 10:28:44;;;;;;;;;30.00;28.75;;;;;;;;5052347;28;52086;-61
2021/10/09 10:31:09;;;;;;;;;27.75;27.75;;;;;;;;5052009;28;51084;-61
2021/10/09 10:33:39;;;;;;;;;30.50;29.00;;;;;;;;5058379;28;51200;-61
2021/10/09 10:36:04;;;;;;;;;30.25;28.50;;;;;;;;5069981;28;51231;-60
2021/10/09 10:38:34;;;;;;;;;23.00;23.00;;;;;;;;5068429;28;51266;-62
2021/10/09 10:41:03;;;;;;;;;30.75;28.75;;;;;;;;5067737;28;51182;-61
2021/10/09 10:46:21;;;;;;;;;30.00;29.00;;;;;;;;5069341;28;51112;-62
2021/10/09 10:48:51;;;;;;;;;30.25;29.00;;;;;;;;5069884;28;51215;-62
2021/10/09 10:51:44;;;;;;;;;34.50;31.75;;;;;;;;5072454;28;51141;-61
2021/10/09 10:56:55;;;;;;;;;25.75;25.00;;;;;;;;5068160;28;51263;-62
2021/10/09 10:59:33;;;;;;;;;27.00;26.00;;;;;;;;5071452;28;51053;-61
2021/10/09 11:02:11;;;;;;;;;22.50;22.25;;;;;;;;5071447;28;51062;-62
2021/10/09 11:04:46;;;;;;;;;27.75;27.50;;;;;;;;5071545;28;50839;-62
2021/10/09 11:07:12;;;;;;;;;24.50;23.50;;;;;;;;5071924;28;51067;-62
2021/10/09 11:09:39;;;;;;;;;28.25;28.00;;;;;;;;5070355;28;51211;-63
2021/10/09 11:12:17;;;;;;;;;18.00;17.25;;;;;;;;5053068;28;50997;-61
2021/10/09 11:14:42;;;;;;;;;22.25;22.25;;;;;;;;5066136;28;51135;-61
2021/10/09 11:17:08;;;;;;;;;24.25;22.50;;;;;;;;5071053;28;51362;-61
2021/10/09 11:19:46;;;;;;;;;24.50;22.75;;;;;;;;5071906;28;51854;-61
2021/10/09 11:22:13;;;;;;;;;22.50;22.25;;;;;;;;5050535;28;51282;-62
2021/10/09 11:24:39;;;;;;;;;20.25;19.25;;;;;;;;5071266;28;51258;-61
2021/10/09 11:27:04;;;;;;;;;22.25;21.75;;;;;;;;5057729;28;51068;-62
2021/10/09 11:29:29;;;;;;;;;19.25;19.25;;;;;;;;5038056;28;54145;-62
2021/10/09 11:32:08;;;;;;;;;21.25;21.25;;;;;;;;5032408;28;51115;-62
2021/10/09 11:34:50;;;;;;;;;25.50;24.00;;;;;;;;5050862;28;51025;-61
2021/10/09 11:37:16;;;;;;;;;25.25;24.75;;;;;;;;5055824;28;51411;-61
2021/10/09 11:39:52;;;;;;;;;20.00;20.00;;;;;;;;5060391;28;50960;-62
2021/10/09 11:42:21;;;;;;;;;23.75;23.50;;;;;;;;5054920;28;50950;-61
2021/10/09 11:45:00;;;;;;;;;22.25;21.00;;;;;;;;5054165;28;51102;-61
2021/10/09 11:55:57;;;;;;;;;20.75;20.75;;;;;;;;5054817;28;51269;-61
2021/10/09 11:58:22;;;;;;;;;21.75;21.25;;;;;;;;5074192;28;51128;-62
2021/10/09 12:00:47;;;;;;;;;20.50;19.75;;;;;;;;5074462;28;51907;-61
2021/10/09 12:03:25;;;;;;;;;17.25;17.25;;;;;;;;5055233;28;51142;-62
2021/10/09 12:06:08;;;;;;;;;22.50;21.75;;;;;;;;5073778;28;51246;-61
2021/10/09 12:08:41;;;;;;;;;20.50;18.75;;;;;;;;5058713;28;51272;-62
2021/10/09 12:11:31;;;;;;;;;22.00;21.75;;;;;;;;5067462;28;51882;-62
2021/10/09 12:14:01;;;;;;;;;20.75;20.00;;;;;;;;5066967;28;51066;-61
2021/10/09 12:16:36;;;;;;;;;20.75;20.50;;;;;;;;5069757;28;51150;-62
2021/10/09 12:19:02;;;;;;;;;25.00;23.75;;;;;;;;5068399;28;51237;-60
2021/10/09 12:21:28;;;;;;;;;22.75;20.75;;;;;;;;5072827;28;51709;-61
2021/10/09 12:23:54;;;;;;;;;19.25;19.25;;;;;;;;5070237;28;50858;-57
2021/10/09 12:26:21;;;;;;;;;25.25;24.00;;;;;;;;5064724;28;51207;-60
2021/10/09 12:29:04;;;;;;;;;20.50;20.00;;;;;;;;5040269;28;51231;-58
2021/10/09 12:31:31;;;;;;;;;27.00;26.25;;;;;;;;5050421;28;52303;-60
2021/10/09 12:33:56;;;;;;;;;22.00;20.75;;;;;;;;5072913;28;51423;-62
2021/10/09 12:36:39;;;;;;;;;19.75;16.75;;;;;;;;5070744;28;51095;-63
2021/10/09 12:39:21;;;;;;;;;18.25;16.00;;;;;;;;5071612;28;51260;-62
2021/10/09 12:41:46;;;;;;;;;27.00;26.00;;;;;;;;5052872;28;52886;-63
2021/10/09 12:44:11;;;;;;;;;21.50;21.50;;;;;;;;5066731;28;51423;-63
2021/10/09 12:46:36;;;;;;;;;17.75;17.75;;;;;;;;5068167;28;51087;-62
2021/10/09 12:49:02;;;;;;;;;16.00;15.67;;;;;;;;5071514;28;51124;-62
2021/10/09 12:51:27;;;;;;;;;22.50;20.50;;;;;;;;5049261;28;53044;-62
2021/10/09 12:53:55;;;;;;;;;17.00;16.00;;;;;;;;5054297;28;51061;-61
2021/10/09 12:56:20;;;;;;;;;18.00;17.00;;;;;;;;5067775;28;51158;-61
2021/10/09 12:58:46;;;;;;;;;19.25;17.25;;;;;;;;5073212;28;51252;-63
2021/10/09 13:01:11;;;;;;;;;18.25;16.50;;;;;;;;5072790;28;51765;-60
2021/10/09 13:03:36;;;;;;;;;18.25;17.25;;;;;;;;5072139;27;50944;-60
2021/10/09 13:06:01;;;;;;;;;18.75;17.75;;;;;;;;5038537;28;51011;-60
2021/10/09 13:08:27;;;;;;;;;15.25;15.00;;;;;;;;5054048;28;51252;-60
2021/10/09 13:10:54;;;;;;;;;26.00;23.50;;;;;;;;5072504;28;51802;-60
2021/10/09 13:13:19;;;;;;;;;18.25;16.25;;;;;;;;5071790;28;50942;-59
2021/10/09 13:15:44;;;;;;;;;19.75;19.00;;;;;;;;5070463;28;51214;-59
2021/10/09 13:18:10;;;;;;;;;17.75;17.00;;;;;;;;5072588;28;51217;-60
2021/10/09 13:20:37;;;;;;;;;21.25;20.25;;;;;;;;5070847;28;50858;-59
2021/10/09 13:23:03;;;;;;;;;19.75;18.50;;;;;;;;5072033;28;51112;-59
2021/10/09 13:25:29;;;;;;;;;21.50;19.75;;;;;;;;5053850;28;51372;-58
2021/10/09 13:27:54;;;;;;;;;21.25;20.25;;;;;;;;5065750;28;51000;-60
2021/10/09 13:30:19;;;;;;;;;16.25;16.25;;;;;;;;5072996;28;51889;-60
2021/10/09 13:32:44;;;;;;;;;20.75;20.25;;;;;;;;5052436;28;51056;-59
2021/10/09 13:35:10;;;;;;;;;20.50;18.50;;;;;;;;5048039;28;51073;-60
2021/10/09 13:37:39;;;;;;;;;24.25;21.25;;;;;;;;5060437;28;51273;-61
2021/10/09 13:40:04;;;;;;;;;21.25;18.50;;;;;;;;5055103;28;51169;-60
2021/10/09 13:42:30;;;;;;;;;21.00;20.50;;;;;;;;5054969;28;50920;-60
2021/10/09 13:44:55;;;;;;;;;21.50;20.75;;;;;;;;5052892;28;50927;-60
2021/10/09 13:47:20;;;;;;;;;22.50;21.25;;;;;;;;5052469;28;51042;-60
2021/10/09 13:49:45;;;;;;;;;20.75;19.25;;;;;;;;5056771;28;52355;-60
2021/10/09 13:52:10;;;;;;;;;14.00;13.25;;;;;;;;5067860;28;51127;-60
2021/10/09 13:54:36;;;;;;;;;20.00;18.75;;;;;;;;5071225;27;51193;-59
2021/10/09 13:57:01;;;;;;;;;21.00;20.50;;;;;;;;5069928;28;51096;-60
2021/10/09 13:59:26;;;;;;;;;19.50;18.75;;;;;;;;5068589;28;51309;-60
2021/10/09 14:01:52;;;;;;;;;24.75;24.25;;;;;;;;5019409;28;51070;-59
2021/10/09 14:04:17;;;;;;;;;20.50;19.50;;;;;;;;5069114;28;51069;-59
2021/10/09 14:06:42;;;;;;;;;20.00;19.75;;;;;;;;5062631;28;51125;-59
2021/10/09 14:09:08;;;;;;;;;20.50;20.00;;;;;;;;5070902;28;51781;-59
2021/10/09 14:11:34;;;;;;;;;21.50;21.50;;;;;;;;5062901;28;51132;-60
2021/10/09 14:13:59;;;;;;;;;19.50;19.50;;;;;;;;5059527;28;51173;-60
2021/10/09 14:16:24;;;;;;;;;22.00;22.00;;;;;;;;5056490;28;51299;-60
2021/10/09 14:18:49;;;;;;;;;27.00;25.75;;;;;;;;5068093;28;51869;-59
2021/10/09 14:21:14;;;;;;;;;20.00;20.00;;;;;;;;5057705;28;51071;-65
2021/10/09 14:23:41;;;;;;;;;14.25;13.50;;;;;;;;5065258;28;50941;-61
2021/10/09 14:26:07;;;;;;;;;19.50;19.50;;;;;;;;5056260;28;51139;-58
2021/10/09 14:28:33;;;;;;;;;24.75;23.25;;;;;;;;5064399;28;51789;-58
2021/10/09 14:30:58;;;;;;;;;29.00;25.75;;;;;;;;5067534;28;51109;-57
2021/10/09 14:33:23;;;;;;;;;23.75;21.75;;;;;;;;5064580;28;50909;-57
2021/10/09 14:35:49;;;;;;;;;22.50;21.00;;;;;;;;5060648;28;51233;-58
2021/10/09 14:38:14;;;;;;;;;23.50;21.50;;;;;;;;5047639;28;52849;-58
2021/10/09 14:40:40;;;;;;;;;16.75;16.25;;;;;;;;5061468;28;50996;-59
2021/10/09 14:43:05;;;;;;;;;23.00;21.50;;;;;;;;5050850;28;51088;-58
2021/10/09 14:45:31;;;;;;;;;21.50;20.75;;;;;;;;5055989;28;51212;-58
2021/10/09 14:53:20;;;;;;;;;20.50;20.50;;;;;;;;5057692;27;51199;-59
2021/10/09 15:20:06;;;;;;;;;21.50;20.00;;;;;;;;5058862;28;51133;-58
2021/10/09 15:22:33;;;;;;;;;17.75;17.75;;;;;;;;5068858;28;50909;-58
2021/10/09 15:24:59;;;;;;;;;23.50;20.50;;;;;;;;5070775;28;51101;-58
2021/10/09 15:27:26;;;;;;;;;19.50;18.50;;;;;;;;5051024;28;50983;-58
2021/10/09 15:29:52;;;;;;;;;16.00;16.00;;;;;;;;5055584;28;51889;-60
2021/10/09 15:32:17;;;;;;;;;20.50;19.75;;;;;;;;5067935;28;51180;-58
2021/10/09 15:34:42;;;;;;;;;19.25;17.75;;;;;;;;5065806;28;51194;-58
2021/10/09 15:37:08;;;;;;;;;22.25;22.25;;;;;;;;5056677;28;50910;-58
2021/10/09 15:39:33;;;;;;;;;16.50;16.50;;;;;;;;5069408;28;50923;-58
2021/10/09 15:41:59;;;;;;;;;21.75;19.25;;;;;;;;5068747;28;50945;-59
2021/10/09 15:44:24;;;;;;;;;29.25;28.50;;;;;;;;5071057;28;50889;-57
2021/10/09 15:46:49;;;;;;;;;24.75;23.00;;;;;;;;5070818;28;51285;-58
2021/10/09 15:49:14;;;;;;;;;22.00;21.75;;;;;;;;5069736;28;51806;-59
2021/10/09 15:51:39;;;;;;;;;19.75;19.75;;;;;;;;5051826;28;52106;-61
2021/10/09 15:54:05;;;;;;;;;28.75;26.25;;;;;;;;5063399;27;51154;-58
2021/10/09 15:56:30;;;;;;;;;23.75;20.50;;;;;;;;5052098;28;51185;-58
2021/10/09 15:58:55;;;;;;;;;24.25;22.75;;;;;;;;5063599;28;51375;-58
2021/10/09 16:01:24;;;;;;;;;20.25;19.50;;;;;;;;5065924;28;52405;-58
2021/10/09 16:03:50;;;;;;;;;23.50;22.25;;;;;;;;5067777;28;51201;-60
2021/10/09 16:06:15;;;;;;;;;25.75;22.50;;;;;;;;5064790;28;51217;-59
2021/10/09 16:08:40;;;;;;;;;21.75;21.50;;;;;;;;5069927;28;51576;-57
2021/10/09 16:11:05;;;;;;;;;21.00;20.50;;;;;;;;5070080;28;51080;-59
2021/10/09 16:13:32;;;;;;;;;19.00;18.50;;;;;;;;5066145;28;51183;-58
2021/10/09 16:15:57;;;;;;;;;23.00;21.50;;;;;;;;5056289;28;50953;-58
2021/10/09 16:18:22;;;;;;;;;32.75;30.00;;;;;;;;5070014;28;51188;-57
2021/10/09 16:20:48;;;;;;;;;28.75;27.00;;;;;;;;5068340;28;51105;-56
2021/10/09 16:23:13;;;;;;;;;24.50;23.75;;;;;;;;5065612;28;50808;-58
2021/10/09 16:25:38;;;;;;;;;20.00;20.00;;;;;;;;5071692;28;51008;-57
2021/10/09 16:28:03;;;;;;;;;26.25;26.25;;;;;;;;5066104;28;51182;-59
2021/10/09 16:30:29;;;;;;;;;26.50;24.75;;;;;;;;5071943;27;50961;-59
2021/10/09 16:32:54;;;;;;;;;22.75;22.50;;;;;;;;5054664;28;51166;-58
2021/10/09 16:35:19;;;;;;;;;24.75;23.50;;;;;;;;5071025;28;51077;-57
2021/10/09 16:37:45;;;;;;;;;28.00;27.25;;;;;;;;5073588;28;51750;-60
2021/10/09 16:40:10;;;;;;;;;30.75;28.00;;;;;;;;5057602;28;50981;-59
2021/10/09 16:42:35;;;;;;;;;26.00;26.00;;;;;;;;5053912;28;51283;-57
2021/10/09 16:45:01;;;;;;;;;24.75;22.50;;;;;;;;5060074;28;51307;-61
2021/10/09 16:47:26;;;;;;;;;29.50;28.00;;;;;;;;5065257;28;51290;-58
2021/10/09 16:49:51;;;;;;;;;31.50;29.75;;;;;;;;5056848;28;50937;-58
2021/10/09 16:52:16;;;;;;;;;28.50;27.50;;;;;;;;5053875;28;51231;-61
2021/10/09 16:54:42;;;;;;;;;31.00;29.50;;;;;;;;5053921;28;51124;-57
2021/10/09 16:57:08;;;;;;;;;28.50;28.00;;;;;;;;5053310;28;52064;-57
2021/10/09 16:59:33;;;;;;;;;15.75;13.50;;;;;;;;5053643;28;51213;-59
2021/10/09 17:01:58;;;;;;;;;31.75;29.00;;;;;;;;5052647;28;51151;-58